sensor_id;sensor_type;location;lat;lon;timestamp;P1;durP1;ratioP1;P2;durP2;ratioP2
71456;SDS011;59263;48.160;11.752;2024-02-21T00:02:01;6.53;;;1.60;;
71456;SDS011;59263;48.160;11.752;2024-02-21T00:04:26;7.40;;;1.80;;
71456;SDS011;59263;48.160;11.752;2024-02-21T00:06:52;9.37;;;2.40;;
71456;SDS011;59263;48.160;11.752;2024-02-21T00:09:17;6.63;;;1.60;;
71456;SDS011;59263;48.160;11.752;2024-02-21T00:11:44;6.13;;;1.27;;
71456;SDS011;59263;48.160;11.752;2024-02-21T00:14:09;6.30;;;1.10;;
71456;SDS011;59263;48.160;11.752;2024-02-21T00:16:35;8.30;;;1.63;;
71456;SDS011;59263;48.160;11.752;2024-02-21T00:19:00;9.30;;;1.80;;
71456;SDS011;59263;48.160;11.752;2024-02-21T00:21:25;6.87;;;1.10;;
71456;SDS011;59263;48.160;11.752;2024-02-21T00:23:50;5.60;;;1.10;;
71456;SDS011;59263;48.160;11.752;2024-02-21T00:26:15;8.27;;;1.63;;
71456;SDS011;59263;48.160;11.752;2024-02-21T00:28:41;6.47;;;1.40;;
71456;SDS011;59263;48.160;11.752;2024-02-21T00:31:06;8.00;;;1.70;;
71456;SDS011;59263;48.160;11.752;2024-02-21T00:33:31;6.50;;;1.50;;
71456;SDS011;59263;48.160;11.752;2024-02-21T00:35:56;5.40;;;1.20;;
71456;SDS011;59263;48.160;11.752;2024-02-21T00:38:22;6.57;;;1.27;;
71456;SDS011;59263;48.160;11.752;2024-02-21T00:40:47;5.53;;;1.30;;
71456;SDS011;59263;48.160;11.752;2024-02-21T00:43:12;5.77;;;1.40;;
71456;SDS011;59263;48.160;11.752;2024-02-21T00:45:37;6.43;;;1.33;;
71456;SDS011;59263;48.160;11.752;2024-02-21T00:48:03;8.00;;;1.47;;
71456;SDS011;59263;48.160;11.752;2024-02-21T00:50:29;5.57;;;1.40;;
71456;SDS011;59263;48.160;11.752;2024-02-21T00:52:54;7.32;;;1.10;;
71456;SDS011;59263;48.160;11.752;2024-02-21T00:55:20;7.05;;;1.38;;
71456;SDS011;59263;48.160;11.752;2024-02-21T00:57:45;6.55;;;1.50;;
71456;SDS011;59263;48.160;11.752;2024-02-21T01:00:10;6.53;;;1.23;;
71456;SDS011;59263;48.160;11.752;2024-02-21T01:02:35;7.00;;;1.40;;
71456;SDS011;59263;48.160;11.752;2024-02-21T01:05:01;6.30;;;1.20;;
71456;SDS011;59263;48.160;11.752;2024-02-21T01:07:27;5.90;;;1.48;;
71456;SDS011;59263;48.160;11.752;2024-02-21T01:09:52;7.70;;;1.37;;
71456;SDS011;59263;48.160;11.752;2024-02-21T01:12:17;10.77;;;1.57;;
71456;SDS011;59263;48.160;11.752;2024-02-21T01:14:43;4.50;;;1.00;;
71456;SDS011;59263;48.160;11.752;2024-02-21T01:17:08;4.63;;;1.10;;
71456;SDS011;59263;48.160;11.752;2024-02-21T01:19:33;5.20;;;1.30;;
71456;SDS011;59263;48.160;11.752;2024-02-21T01:21:58;10.30;;;1.33;;
71456;SDS011;59263;48.160;11.752;2024-02-21T01:24:24;4.77;;;0.90;;
71456;SDS011;59263;48.160;11.752;2024-02-21T01:26:49;9.00;;;1.10;;
71456;SDS011;59263;48.160;11.752;2024-02-21T01:29:14;6.80;;;1.30;;
71456;SDS011;59263;48.160;11.752;2024-02-21T01:31:39;7.83;;;1.13;;
71456;SDS011;59263;48.160;11.752;2024-02-21T01:34:04;6.23;;;1.40;;
71456;SDS011;59263;48.160;11.752;2024-02-21T01:36:30;5.10;;;0.97;;
71456;SDS011;59263;48.160;11.752;2024-02-21T01:38:55;5.90;;;1.13;;
71456;SDS011;59263;48.160;11.752;2024-02-21T01:41:20;4.63;;;1.00;;
71456;SDS011;59263;48.160;11.752;2024-02-21T01:43:45;5.97;;;1.10;;
71456;SDS011;59263;48.160;11.752;2024-02-21T01:46:10;5.33;;;1.20;;
71456;SDS011;59263;48.160;11.752;2024-02-21T01:48:36;6.03;;;1.33;;
71456;SDS011;59263;48.160;11.752;2024-02-21T01:51:01;5.50;;;1.27;;
71456;SDS011;59263;48.160;11.752;2024-02-21T01:53:36;7.75;;;1.27;;
71456;SDS011;59263;48.160;11.752;2024-02-21T01:56:02;6.28;;;1.40;;
71456;SDS011;59263;48.160;11.752;2024-02-21T01:58:28;4.23;;;0.90;;
71456;SDS011;59263;48.160;11.752;2024-02-21T02:00:53;3.08;;;0.90;;
71456;SDS011;59263;48.160;11.752;2024-02-21T02:03:21;5.13;;;0.85;;
71456;SDS011;59263;48.160;11.752;2024-02-21T02:05:47;5.70;;;1.00;;
71456;SDS011;59263;48.160;11.752;2024-02-21T02:08:15;5.93;;;1.00;;
71456;SDS011;59263;48.160;11.752;2024-02-21T02:10:41;6.28;;;1.10;;
71456;SDS011;59263;48.160;11.752;2024-02-21T02:13:08;3.78;;;0.82;;
71456;SDS011;59263;48.160;11.752;2024-02-21T02:15:37;4.60;;;0.90;;
71456;SDS011;59263;48.160;11.752;2024-02-21T02:18:02;3.97;;;1.00;;
71456;SDS011;59263;48.160;11.752;2024-02-21T02:20:28;9.70;;;0.90;;
71456;SDS011;59263;48.160;11.752;2024-02-21T02:22:53;7.73;;;1.43;;
71456;SDS011;59263;48.160;11.752;2024-02-21T02:25:19;3.87;;;0.90;;
71456;SDS011;59263;48.160;11.752;2024-02-21T02:27:44;4.47;;;0.90;;
71456;SDS011;59263;48.160;11.752;2024-02-21T02:30:10;4.43;;;1.00;;
71456;SDS011;59263;48.160;11.752;2024-02-21T02:32:36;4.28;;;1.00;;
71456;SDS011;59263;48.160;11.752;2024-02-21T02:35:01;6.70;;;1.17;;
71456;SDS011;59263;48.160;11.752;2024-02-21T02:37:26;7.63;;;0.93;;
71456;SDS011;59263;48.160;11.752;2024-02-21T02:39:51;3.43;;;0.90;;
71456;SDS011;59263;48.160;11.752;2024-02-21T02:42:16;7.50;;;1.03;;
71456;SDS011;59263;48.160;11.752;2024-02-21T02:44:42;7.33;;;1.00;;
71456;SDS011;59263;48.160;11.752;2024-02-21T02:47:08;4.30;;;0.60;;
71456;SDS011;59263;48.160;11.752;2024-02-21T02:49:33;2.92;;;0.75;;
71456;SDS011;59263;48.160;11.752;2024-02-21T02:51:58;3.53;;;0.77;;
71456;SDS011;59263;48.160;11.752;2024-02-21T02:54:23;5.27;;;1.10;;
71456;SDS011;59263;48.160;11.752;2024-02-21T02:56:49;2.27;;;0.60;;
71456;SDS011;59263;48.160;11.752;2024-02-21T02:59:15;3.17;;;0.73;;
71456;SDS011;59263;48.160;11.752;2024-02-21T03:01:40;4.37;;;0.90;;
71456;SDS011;59263;48.160;11.752;2024-02-21T03:04:05;4.30;;;0.90;;
71456;SDS011;59263;48.160;11.752;2024-02-21T03:06:30;3.50;;;0.83;;
71456;SDS011;59263;48.160;11.752;2024-02-21T03:08:56;4.03;;;0.87;;
71456;SDS011;59263;48.160;11.752;2024-02-21T03:11:21;4.73;;;0.87;;
71456;SDS011;59263;48.160;11.752;2024-02-21T03:13:53;5.22;;;0.70;;
71456;SDS011;59263;48.160;11.752;2024-02-21T03:16:19;6.33;;;0.90;;
71456;SDS011;59263;48.160;11.752;2024-02-21T03:18:44;2.97;;;0.63;;
71456;SDS011;59263;48.160;11.752;2024-02-21T03:21:09;3.47;;;0.70;;
71456;SDS011;59263;48.160;11.752;2024-02-21T03:23:35;3.53;;;0.70;;
71456;SDS011;59263;48.160;11.752;2024-02-21T03:26:00;6.40;;;0.80;;
71456;SDS011;59263;48.160;11.752;2024-02-21T03:28:25;2.60;;;0.60;;
71456;SDS011;59263;48.160;11.752;2024-02-21T03:30:50;3.67;;;0.67;;
71456;SDS011;59263;48.160;11.752;2024-02-21T03:33:15;4.10;;;0.77;;
71456;SDS011;59263;48.160;11.752;2024-02-21T03:35:41;3.10;;;0.70;;
71456;SDS011;59263;48.160;11.752;2024-02-21T03:38:06;4.10;;;0.77;;
71456;SDS011;59263;48.160;11.752;2024-02-21T03:40:31;2.50;;;0.70;;
71456;SDS011;59263;48.160;11.752;2024-02-21T03:42:56;3.63;;;0.90;;
71456;SDS011;59263;48.160;11.752;2024-02-21T03:45:21;4.17;;;0.80;;
71456;SDS011;59263;48.160;11.752;2024-02-21T03:47:47;3.33;;;0.80;;
71456;SDS011;59263;48.160;11.752;2024-02-21T03:50:12;3.03;;;0.80;;
71456;SDS011;59263;48.160;11.752;2024-02-21T03:52:37;5.50;;;0.80;;
71456;SDS011;59263;48.160;11.752;2024-02-21T03:55:02;4.23;;;0.60;;
71456;SDS011;59263;48.160;11.752;2024-02-21T03:57:27;2.03;;;0.60;;
71456;SDS011;59263;48.160;11.752;2024-02-21T03:59:53;3.42;;;0.80;;
71456;SDS011;59263;48.160;11.752;2024-02-21T04:02:18;7.07;;;0.90;;
71456;SDS011;59263;48.160;11.752;2024-02-21T04:04:44;2.83;;;0.50;;
71456;SDS011;59263;48.160;11.752;2024-02-21T04:07:12;2.80;;;0.57;;
71456;SDS011;59263;48.160;11.752;2024-02-21T04:09:37;2.67;;;0.70;;
71456;SDS011;59263;48.160;11.752;2024-02-21T04:12:02;2.17;;;0.50;;
71456;SDS011;59263;48.160;11.752;2024-02-21T04:14:28;2.67;;;0.60;;
71456;SDS011;59263;48.160;11.752;2024-02-21T04:16:53;4.67;;;0.80;;
71456;SDS011;59263;48.160;11.752;2024-02-21T04:19:18;2.90;;;0.70;;
71456;SDS011;59263;48.160;11.752;2024-02-21T04:21:43;3.87;;;0.60;;
71456;SDS011;59263;48.160;11.752;2024-02-21T04:24:09;2.83;;;0.70;;
71456;SDS011;59263;48.160;11.752;2024-02-21T04:26:35;2.97;;;0.50;;
71456;SDS011;59263;48.160;11.752;2024-02-21T04:29:00;3.07;;;0.70;;
71456;SDS011;59263;48.160;11.752;2024-02-21T04:31:25;3.73;;;0.70;;
71456;SDS011;59263;48.160;11.752;2024-02-21T04:33:50;5.87;;;0.90;;
71456;SDS011;59263;48.160;11.752;2024-02-21T04:36:16;4.10;;;0.60;;
71456;SDS011;59263;48.160;11.752;2024-02-21T04:38:41;3.93;;;0.73;;
71456;SDS011;59263;48.160;11.752;2024-02-21T04:41:06;1.03;;;0.33;;
71456;SDS011;59263;48.160;11.752;2024-02-21T04:43:31;4.33;;;0.60;;
71456;SDS011;59263;48.160;11.752;2024-02-21T04:45:57;2.72;;;0.55;;
71456;SDS011;59263;48.160;11.752;2024-02-21T04:48:22;3.63;;;0.73;;
71456;SDS011;59263;48.160;11.752;2024-02-21T04:50:48;7.87;;;0.60;;
71456;SDS011;59263;48.160;11.752;2024-02-21T04:53:13;3.37;;;0.63;;
71456;SDS011;59263;48.160;11.752;2024-02-21T04:55:38;3.73;;;0.60;;
71456;SDS011;59263;48.160;11.752;2024-02-21T04:58:05;4.78;;;0.77;;
71456;SDS011;59263;48.160;11.752;2024-02-21T05:00:30;5.10;;;0.87;;
71456;SDS011;59263;48.160;11.752;2024-02-21T05:02:55;3.87;;;0.70;;
71456;SDS011;59263;48.160;11.752;2024-02-21T05:05:20;1.93;;;0.53;;
71456;SDS011;59263;48.160;11.752;2024-02-21T05:07:46;3.47;;;0.67;;
71456;SDS011;59263;48.160;11.752;2024-02-21T05:10:11;0.87;;;0.37;;
71456;SDS011;59263;48.160;11.752;2024-02-21T05:12:36;3.17;;;0.57;;
71456;SDS011;59263;48.160;11.752;2024-02-21T05:15:02;3.90;;;0.60;;
71456;SDS011;59263;48.160;11.752;2024-02-21T05:17:28;6.80;;;0.80;;
71456;SDS011;59263;48.160;11.752;2024-02-21T05:19:53;2.37;;;0.50;;
71456;SDS011;59263;48.160;11.752;2024-02-21T05:22:18;3.73;;;0.63;;
71456;SDS011;59263;48.160;11.752;2024-02-21T05:24:43;4.93;;;1.00;;
71456;SDS011;59263;48.160;11.752;2024-02-21T05:27:08;4.80;;;0.80;;
71456;SDS011;59263;48.160;11.752;2024-02-21T05:29:34;3.50;;;0.67;;
71456;SDS011;59263;48.160;11.752;2024-02-21T05:31:59;2.20;;;0.50;;
71456;SDS011;59263;48.160;11.752;2024-02-21T05:34:25;1.43;;;0.40;;
71456;SDS011;59263;48.160;11.752;2024-02-21T05:36:50;2.97;;;0.70;;
71456;SDS011;59263;48.160;11.752;2024-02-21T05:39:16;2.33;;;0.67;;
71456;SDS011;59263;48.160;11.752;2024-02-21T05:41:42;2.22;;;0.45;;
71456;SDS011;59263;48.160;11.752;2024-02-21T05:44:07;3.17;;;0.53;;
71456;SDS011;59263;48.160;11.752;2024-02-21T05:46:32;3.57;;;0.67;;
71456;SDS011;59263;48.160;11.752;2024-02-21T05:48:57;2.77;;;0.50;;
71456;SDS011;59263;48.160;11.752;2024-02-21T05:51:23;2.10;;;0.50;;
71456;SDS011;59263;48.160;11.752;2024-02-21T05:53:48;2.80;;;0.67;;
71456;SDS011;59263;48.160;11.752;2024-02-21T05:56:13;2.40;;;0.50;;
71456;SDS011;59263;48.160;11.752;2024-02-21T05:58:39;2.45;;;0.70;;
71456;SDS011;59263;48.160;11.752;2024-02-21T06:01:04;1.67;;;0.47;;
71456;SDS011;59263;48.160;11.752;2024-02-21T06:03:31;3.70;;;0.57;;
71456;SDS011;59263;48.160;11.752;2024-02-21T06:05:57;2.83;;;0.70;;
71456;SDS011;59263;48.160;11.752;2024-02-21T06:08:22;3.50;;;0.57;;
71456;SDS011;59263;48.160;11.752;2024-02-21T06:10:48;5.32;;;0.73;;
71456;SDS011;59263;48.160;11.752;2024-02-21T06:13:13;4.88;;;1.00;;
71456;SDS011;59263;48.160;11.752;2024-02-21T06:15:38;3.37;;;0.63;;
71456;SDS011;59263;48.160;11.752;2024-02-21T06:18:04;4.57;;;0.77;;
71456;SDS011;59263;48.160;11.752;2024-02-21T06:20:29;2.47;;;0.70;;
71456;SDS011;59263;48.160;11.752;2024-02-21T06:22:54;4.40;;;0.83;;
71456;SDS011;59263;48.160;11.752;2024-02-21T06:25:19;5.63;;;0.77;;
71456;SDS011;59263;48.160;11.752;2024-02-21T06:27:45;3.23;;;0.80;;
71456;SDS011;59263;48.160;11.752;2024-02-21T06:30:10;2.63;;;0.60;;
71456;SDS011;59263;48.160;11.752;2024-02-21T06:32:35;5.00;;;1.10;;
71456;SDS011;59263;48.160;11.752;2024-02-21T06:35:00;9.27;;;2.53;;
71456;SDS011;59263;48.160;11.752;2024-02-21T06:37:27;7.55;;;1.90;;
71456;SDS011;59263;48.160;11.752;2024-02-21T06:39:52;7.13;;;1.57;;
71456;SDS011;59263;48.160;11.752;2024-02-21T06:42:17;4.33;;;1.20;;
71456;SDS011;59263;48.160;11.752;2024-02-21T06:44:43;3.37;;;0.73;;
71456;SDS011;59263;48.160;11.752;2024-02-21T06:47:09;1.25;;;0.40;;
71456;SDS011;59263;48.160;11.752;2024-02-21T06:49:34;2.70;;;0.60;;
71456;SDS011;59263;48.160;11.752;2024-02-21T06:51:59;1.63;;;0.50;;
71456;SDS011;59263;48.160;11.752;2024-02-21T06:54:24;3.53;;;0.70;;
71456;SDS011;59263;48.160;11.752;2024-02-21T06:56:50;2.07;;;0.47;;
71456;SDS011;59263;48.160;11.752;2024-02-21T06:59:15;1.07;;;0.40;;
71456;SDS011;59263;48.160;11.752;2024-02-21T07:01:44;1.97;;;0.40;;
71456;SDS011;59263;48.160;11.752;2024-02-21T07:04:09;3.47;;;0.80;;
71456;SDS011;59263;48.160;11.752;2024-02-21T07:06:34;3.73;;;0.67;;
71456;SDS011;59263;48.160;11.752;2024-02-21T07:08:59;4.77;;;0.50;;
71456;SDS011;59263;48.160;11.752;2024-02-21T07:11:25;3.23;;;0.80;;
71456;SDS011;59263;48.160;11.752;2024-02-21T07:13:50;2.03;;;0.63;;
71456;SDS011;59263;48.160;11.752;2024-02-21T07:16:16;4.07;;;0.68;;
71456;SDS011;59263;48.160;11.752;2024-02-21T07:18:41;2.83;;;0.60;;
71456;SDS011;59263;48.160;11.752;2024-02-21T07:21:06;1.50;;;0.40;;
71456;SDS011;59263;48.160;11.752;2024-02-21T07:23:32;2.20;;;0.60;;
71456;SDS011;59263;48.160;11.752;2024-02-21T07:25:57;3.83;;;0.73;;
71456;SDS011;59263;48.160;11.752;2024-02-21T07:28:22;3.43;;;0.70;;
71456;SDS011;59263;48.160;11.752;2024-02-21T07:30:48;4.07;;;0.70;;
71456;SDS011;59263;48.160;11.752;2024-02-21T07:33:13;2.00;;;0.47;;
71456;SDS011;59263;48.160;11.752;2024-02-21T07:35:39;2.42;;;0.65;;
71456;SDS011;59263;48.160;11.752;2024-02-21T07:38:06;1.67;;;0.40;;
71456;SDS011;59263;48.160;11.752;2024-02-21T07:40:32;3.28;;;0.50;;
71456;SDS011;59263;48.160;11.752;2024-02-21T07:42:57;5.73;;;0.60;;
71456;SDS011;59263;48.160;11.752;2024-02-21T07:45:22;3.10;;;0.67;;
71456;SDS011;59263;48.160;11.752;2024-02-21T07:47:49;4.65;;;0.70;;
71456;SDS011;59263;48.160;11.752;2024-02-21T07:50:14;2.63;;;0.70;;
71456;SDS011;59263;48.160;11.752;2024-02-21T07:52:39;2.70;;;0.73;;
71456;SDS011;59263;48.160;11.752;2024-02-21T07:55:05;2.53;;;0.60;;
71456;SDS011;59263;48.160;11.752;2024-02-21T07:57:30;1.53;;;0.50;;
71456;SDS011;59263;48.160;11.752;2024-02-21T07:59:55;3.93;;;0.83;;
71456;SDS011;59263;48.160;11.752;2024-02-21T08:02:21;3.93;;;0.87;;
71456;SDS011;59263;48.160;11.752;2024-02-21T08:04:46;2.83;;;0.60;;
71456;SDS011;59263;48.160;11.752;2024-02-21T08:07:11;3.77;;;0.60;;
71456;SDS011;59263;48.160;11.752;2024-02-21T08:09:39;2.27;;;0.50;;
71456;SDS011;59263;48.160;11.752;2024-02-21T08:12:04;2.70;;;0.50;;
71456;SDS011;59263;48.160;11.752;2024-02-21T08:14:30;2.77;;;0.50;;
71456;SDS011;59263;48.160;11.752;2024-02-21T08:16:56;1.63;;;0.40;;
71456;SDS011;59263;48.160;11.752;2024-02-21T08:19:21;4.47;;;0.40;;
71456;SDS011;59263;48.160;11.752;2024-02-21T08:21:47;2.92;;;0.60;;
71456;SDS011;59263;48.160;11.752;2024-02-21T08:24:15;3.80;;;0.70;;
71456;SDS011;59263;48.160;11.752;2024-02-21T08:26:41;2.00;;;0.50;;
71456;SDS011;59263;48.160;11.752;2024-02-21T08:29:07;3.40;;;0.47;;
71456;SDS011;59263;48.160;11.752;2024-02-21T08:31:32;1.63;;;0.40;;
71456;SDS011;59263;48.160;11.752;2024-02-21T08:33:58;2.07;;;0.43;;
71456;SDS011;59263;48.160;11.752;2024-02-21T08:36:29;7.32;;;0.80;;
71456;SDS011;59263;48.160;11.752;2024-02-21T08:38:55;3.50;;;0.70;;
71456;SDS011;59263;48.160;11.752;2024-02-21T08:41:21;1.77;;;0.47;;
71456;SDS011;59263;48.160;11.752;2024-02-21T08:43:48;4.35;;;0.60;;
71456;SDS011;59263;48.160;11.752;2024-02-21T08:46:13;2.67;;;0.60;;
71456;SDS011;59263;48.160;11.752;2024-02-21T08:48:38;2.80;;;0.80;;
71456;SDS011;59263;48.160;11.752;2024-02-21T08:51:04;2.17;;;0.50;;
71456;SDS011;59263;48.160;11.752;2024-02-21T08:53:30;4.75;;;0.80;;
71456;SDS011;59263;48.160;11.752;2024-02-21T08:55:56;2.92;;;0.60;;
71456;SDS011;59263;48.160;11.752;2024-02-21T08:58:22;4.63;;;0.83;;
71456;SDS011;59263;48.160;11.752;2024-02-21T09:00:49;4.50;;;0.60;;
71456;SDS011;59263;48.160;11.752;2024-02-21T09:03:14;2.80;;;0.53;;
71456;SDS011;59263;48.160;11.752;2024-02-21T09:05:40;2.72;;;0.50;;
71456;SDS011;59263;48.160;11.752;2024-02-21T09:08:05;2.97;;;0.50;;
71456;SDS011;59263;48.160;11.752;2024-02-21T09:10:30;2.80;;;0.60;;
71456;SDS011;59263;48.160;11.752;2024-02-21T09:12:56;3.80;;;0.50;;
71456;SDS011;59263;48.160;11.752;2024-02-21T09:15:21;2.10;;;0.50;;
71456;SDS011;59263;48.160;11.752;2024-02-21T09:17:46;3.37;;;0.60;;
71456;SDS011;59263;48.160;11.752;2024-02-21T09:20:12;2.53;;;0.50;;
71456;SDS011;59263;48.160;11.752;2024-02-21T09:22:37;2.87;;;0.50;;
71456;SDS011;59263;48.160;11.752;2024-02-21T09:25:04;1.23;;;0.40;;
71456;SDS011;59263;48.160;11.752;2024-02-21T09:27:30;4.13;;;0.70;;
71456;SDS011;59263;48.160;11.752;2024-02-21T09:29:55;6.97;;;1.00;;
71456;SDS011;59263;48.160;11.752;2024-02-21T09:32:20;3.10;;;0.60;;
71456;SDS011;59263;48.160;11.752;2024-02-21T09:34:46;1.20;;;0.50;;
71456;SDS011;59263;48.160;11.752;2024-02-21T09:37:11;2.47;;;0.50;;
71456;SDS011;59263;48.160;11.752;2024-02-21T09:39:37;5.23;;;0.50;;
71456;SDS011;59263;48.160;11.752;2024-02-21T09:42:05;2.88;;;0.50;;
71456;SDS011;59263;48.160;11.752;2024-02-21T09:44:33;4.68;;;0.60;;
71456;SDS011;59263;48.160;11.752;2024-02-21T09:47:09;3.28;;;0.65;;
71456;SDS011;59263;48.160;11.752;2024-02-21T09:49:35;3.03;;;0.50;;
71456;SDS011;59263;48.160;11.752;2024-02-21T09:52:04;2.30;;;0.40;;
71456;SDS011;59263;48.160;11.752;2024-02-21T09:54:29;3.77;;;0.60;;
71456;SDS011;59263;48.160;11.752;2024-02-21T09:56:56;2.97;;;0.40;;
71456;SDS011;59263;48.160;11.752;2024-02-21T09:59:21;7.53;;;0.60;;
71456;SDS011;59263;48.160;11.752;2024-02-21T10:01:47;3.28;;;0.50;;
71456;SDS011;59263;48.160;11.752;2024-02-21T10:04:12;3.63;;;0.67;;
71456;SDS011;59263;48.160;11.752;2024-02-21T10:06:37;3.37;;;0.50;;
71456;SDS011;59263;48.160;11.752;2024-02-21T10:09:04;3.72;;;0.70;;
71456;SDS011;59263;48.160;11.752;2024-02-21T10:11:30;3.13;;;0.60;;
71456;SDS011;59263;48.160;11.752;2024-02-21T10:14:02;2.17;;;0.47;;
71456;SDS011;59263;48.160;11.752;2024-02-21T10:16:28;5.47;;;0.60;;
71456;SDS011;59263;48.160;11.752;2024-02-21T10:18:54;2.63;;;0.70;;
71456;SDS011;59263;48.160;11.752;2024-02-21T10:21:19;2.30;;;0.40;;
71456;SDS011;59263;48.160;11.752;2024-02-21T10:23:46;2.42;;;0.60;;
71456;SDS011;59263;48.160;11.752;2024-02-21T10:26:11;1.27;;;0.40;;
71456;SDS011;59263;48.160;11.752;2024-02-21T10:28:39;4.30;;;0.60;;
71456;SDS011;59263;48.160;11.752;2024-02-21T10:31:10;1.93;;;0.40;;
71456;SDS011;59263;48.160;11.752;2024-02-21T10:33:36;3.13;;;0.50;;
71456;SDS011;59263;48.160;11.752;2024-02-21T10:36:07;3.07;;;0.60;;
71456;SDS011;59263;48.160;11.752;2024-02-21T10:38:34;2.72;;;0.50;;
71456;SDS011;59263;48.160;11.752;2024-02-21T10:40:59;1.63;;;0.50;;
71456;SDS011;59263;48.160;11.752;2024-02-21T10:43:24;2.40;;;0.40;;
71456;SDS011;59263;48.160;11.752;2024-02-21T10:45:50;3.20;;;0.40;;
71456;SDS011;59263;48.160;11.752;2024-02-21T10:48:18;1.67;;;0.30;;
71456;SDS011;59263;48.160;11.752;2024-02-21T10:53:29;1.80;;;0.40;;
71456;SDS011;59263;48.160;11.752;2024-02-21T10:58:35;3.90;;;0.50;;
71456;SDS011;59263;48.160;11.752;2024-02-21T11:01:00;3.73;;;0.40;;
71456;SDS011;59263;48.160;11.752;2024-02-21T11:03:25;3.40;;;0.40;;
71456;SDS011;59263;48.160;11.752;2024-02-21T11:05:50;2.87;;;0.60;;
71456;SDS011;59263;48.160;11.752;2024-02-21T11:08:16;2.60;;;0.40;;
71456;SDS011;59263;48.160;11.752;2024-02-21T11:10:45;2.47;;;0.43;;
71456;SDS011;59263;48.160;11.752;2024-02-21T11:13:10;2.13;;;0.45;;
71456;SDS011;59263;48.160;11.752;2024-02-21T11:15:36;3.37;;;0.50;;
71456;SDS011;59263;48.160;11.752;2024-02-21T11:18:01;2.53;;;0.50;;
71456;SDS011;59263;48.160;11.752;2024-02-21T11:20:33;2.03;;;0.50;;
71456;SDS011;59263;48.160;11.752;2024-02-21T11:23:02;1.00;;;0.40;;
71456;SDS011;59263;48.160;11.752;2024-02-21T11:25:27;2.60;;;0.50;;
71456;SDS011;59263;48.160;11.752;2024-02-21T11:28:00;2.10;;;0.60;;
71456;SDS011;59263;48.160;11.752;2024-02-21T11:30:32;1.80;;;0.30;;
71456;SDS011;59263;48.160;11.752;2024-02-21T11:33:05;1.98;;;0.40;;
71456;SDS011;59263;48.160;11.752;2024-02-21T11:35:34;2.17;;;0.47;;
71456;SDS011;59263;48.160;11.752;2024-02-21T11:38:09;1.30;;;0.30;;
71456;SDS011;59263;48.160;11.752;2024-02-21T11:40:35;2.63;;;0.47;;
71456;SDS011;59263;48.160;11.752;2024-02-21T11:43:00;1.17;;;0.40;;
71456;SDS011;59263;48.160;11.752;2024-02-21T11:45:25;2.07;;;0.70;;
71456;SDS011;59263;48.160;11.752;2024-02-21T11:47:52;0.80;;;0.30;;
71456;SDS011;59263;48.160;11.752;2024-02-21T11:50:17;1.63;;;0.37;;
71456;SDS011;59263;48.160;11.752;2024-02-21T11:52:43;2.13;;;0.50;;
71456;SDS011;59263;48.160;11.752;2024-02-21T11:55:08;1.87;;;0.40;;
71456;SDS011;59263;48.160;11.752;2024-02-21T11:57:33;1.37;;;0.40;;
71456;SDS011;59263;48.160;11.752;2024-02-21T12:00:09;0.95;;;0.38;;
71456;SDS011;59263;48.160;11.752;2024-02-21T12:02:35;0.82;;;0.30;;
71456;SDS011;59263;48.160;11.752;2024-02-21T12:05:00;1.43;;;0.43;;
71456;SDS011;59263;48.160;11.752;2024-02-21T12:07:25;1.63;;;0.47;;
71456;SDS011;59263;48.160;11.752;2024-02-21T12:09:53;1.05;;;0.30;;
71456;SDS011;59263;48.160;11.752;2024-02-21T12:12:19;2.07;;;0.30;;
71456;SDS011;59263;48.160;11.752;2024-02-21T12:14:45;1.60;;;0.50;;
71456;SDS011;59263;48.160;11.752;2024-02-21T12:17:10;1.53;;;0.40;;
71456;SDS011;59263;48.160;11.752;2024-02-21T12:19:35;1.93;;;0.40;;
71456;SDS011;59263;48.160;11.752;2024-02-21T12:22:01;1.13;;;0.30;;
71456;SDS011;59263;48.160;11.752;2024-02-21T12:24:27;1.58;;;0.45;;
71456;SDS011;59263;48.160;11.752;2024-02-21T12:26:53;0.70;;;0.30;;
71456;SDS011;59263;48.160;11.752;2024-02-21T12:29:21;1.08;;;0.40;;
71456;SDS011;59263;48.160;11.752;2024-02-21T12:31:47;1.83;;;0.50;;
71456;SDS011;59263;48.160;11.752;2024-02-21T12:34:14;2.40;;;0.40;;
71456;SDS011;59263;48.160;11.752;2024-02-21T12:36:43;3.63;;;0.70;;
71456;SDS011;59263;48.160;11.752;2024-02-21T12:39:09;1.90;;;0.40;;
71456;SDS011;59263;48.160;11.752;2024-02-21T12:41:34;1.30;;;0.30;;
71456;SDS011;59263;48.160;11.752;2024-02-21T12:44:03;0.60;;;0.30;;
71456;SDS011;59263;48.160;11.752;2024-02-21T12:46:28;3.40;;;0.40;;
71456;SDS011;59263;48.160;11.752;2024-02-21T12:48:53;2.30;;;0.50;;
71456;SDS011;59263;48.160;11.752;2024-02-21T12:51:19;1.10;;;0.40;;
71456;SDS011;59263;48.160;11.752;2024-02-21T12:53:46;1.77;;;0.40;;
71456;SDS011;59263;48.160;11.752;2024-02-21T12:56:11;3.40;;;0.50;;
71456;SDS011;59263;48.160;11.752;2024-02-21T12:58:37;2.37;;;0.30;;
71456;SDS011;59263;48.160;11.752;2024-02-21T13:01:02;2.75;;;0.30;;
71456;SDS011;59263;48.160;11.752;2024-02-21T13:03:27;1.17;;;0.40;;
71456;SDS011;59263;48.160;11.752;2024-02-21T13:05:53;1.30;;;0.30;;
71456;SDS011;59263;48.160;11.752;2024-02-21T13:08:18;1.47;;;0.30;;
71456;SDS011;59263;48.160;11.752;2024-02-21T13:10:47;1.42;;;0.30;;
71456;SDS011;59263;48.160;11.752;2024-02-21T13:13:13;2.00;;;0.33;;
71456;SDS011;59263;48.160;11.752;2024-02-21T13:15:38;1.93;;;0.30;;
71456;SDS011;59263;48.160;11.752;2024-02-21T13:18:07;1.48;;;0.40;;
71456;SDS011;59263;48.160;11.752;2024-02-21T13:20:33;1.73;;;0.40;;
71456;SDS011;59263;48.160;11.752;2024-02-21T13:22:58;1.60;;;0.40;;
71456;SDS011;59263;48.160;11.752;2024-02-21T13:25:23;1.50;;;0.40;;
71456;SDS011;59263;48.160;11.752;2024-02-21T13:27:48;1.93;;;0.40;;
71456;SDS011;59263;48.160;11.752;2024-02-21T13:30:14;2.30;;;0.40;;
71456;SDS011;59263;48.160;11.752;2024-02-21T13:32:41;3.00;;;0.40;;
71456;SDS011;59263;48.160;11.752;2024-02-21T13:35:07;1.30;;;0.30;;
71456;SDS011;59263;48.160;11.752;2024-02-21T13:37:33;1.25;;;0.32;;
71456;SDS011;59263;48.160;11.752;2024-02-21T13:39:58;2.30;;;0.40;;
71456;SDS011;59263;48.160;11.752;2024-02-21T13:42:23;1.63;;;0.30;;
71456;SDS011;59263;48.160;11.752;2024-02-21T13:44:52;2.58;;;0.50;;
71456;SDS011;59263;48.160;11.752;2024-02-21T13:47:17;1.40;;;0.47;;
71456;SDS011;59263;48.160;11.752;2024-02-21T13:49:43;1.47;;;0.40;;
71456;SDS011;59263;48.160;11.752;2024-02-21T13:52:08;0.70;;;0.30;;
71456;SDS011;59263;48.160;11.752;2024-02-21T13:54:34;1.77;;;0.40;;
71456;SDS011;59263;48.160;11.752;2024-02-21T13:56:59;4.07;;;0.53;;
71456;SDS011;59263;48.160;11.752;2024-02-21T13:59:26;2.20;;;0.50;;
71456;SDS011;59263;48.160;11.752;2024-02-21T14:01:51;2.80;;;0.40;;
71456;SDS011;59263;48.160;11.752;2024-02-21T14:04:16;1.70;;;0.45;;
71456;SDS011;59263;48.160;11.752;2024-02-21T14:06:42;2.17;;;0.55;;
71456;SDS011;59263;48.160;11.752;2024-02-21T14:09:08;0.68;;;0.30;;
71456;SDS011;59263;48.160;11.752;2024-02-21T14:11:34;2.63;;;0.50;;
71456;SDS011;59263;48.160;11.752;2024-02-21T14:13:59;1.57;;;0.40;;
71456;SDS011;59263;48.160;11.752;2024-02-21T14:16:25;3.37;;;0.40;;
71456;SDS011;59263;48.160;11.752;2024-02-21T14:18:50;1.83;;;0.40;;
71456;SDS011;59263;48.160;11.752;2024-02-21T14:21:15;1.35;;;0.30;;
71456;SDS011;59263;48.160;11.752;2024-02-21T14:23:40;1.67;;;0.40;;
71456;SDS011;59263;48.160;11.752;2024-02-21T14:26:06;1.33;;;0.30;;
71456;SDS011;59263;48.160;11.752;2024-02-21T14:28:31;1.93;;;0.30;;
71456;SDS011;59263;48.160;11.752;2024-02-21T14:30:58;3.90;;;0.60;;